createdAt,value
2023-05-09T00:02:17.919Z,15.93
2023-05-09T00:04:44.401Z,15.25
2023-05-09T00:07:10.705Z,14.20
2023-05-09T00:09:36.964Z,15.63
2023-05-09T00:12:04.105Z,15.75
2023-05-09T00:14:30.381Z,15.15
2023-05-09T00:16:59.198Z,16.35
2023-05-09T00:19:25.452Z,16.23
2023-05-09T00:21:51.901Z,15.70
2023-05-09T00:24:18.125Z,15.43
2023-05-09T00:26:44.343Z,14.68
2023-05-09T00:29:10.581Z,15.57
2023-05-09T00:31:36.842Z,16.90
2023-05-09T00:34:03.114Z,16.70
2023-05-09T00:36:29.378Z,16.13
2023-05-09T00:38:55.603Z,15.80
2023-05-09T00:41:21.864Z,15.55
2023-05-09T00:43:48.081Z,16.27
2023-05-09T00:46:14.386Z,16.05
2023-05-09T00:48:40.788Z,14.68
2023-05-09T00:51:07.361Z,15.00
2023-05-09T00:53:33.646Z,15.25
2023-05-09T00:56:00.183Z,14.50
2023-05-09T00:58:26.991Z,15.98
2023-05-09T01:00:53.210Z,15.57
2023-05-09T01:03:19.583Z,15.73
2023-05-09T01:05:58.317Z,16.42
2023-05-09T01:08:37.532Z,15.23
2023-05-09T01:11:09.345Z,16.02
2023-05-09T01:13:41.224Z,14.70
2023-05-09T01:16:11.041Z,15.02
2023-05-09T01:18:40.900Z,15.82
2023-05-09T01:21:11.159Z,16.17
2023-05-09T01:23:44.100Z,16.42
2023-05-09T01:26:10.380Z,16.65
2023-05-09T01:28:55.005Z,16.85
2023-05-09T01:31:21.435Z,16.42
2023-05-09T01:33:52.195Z,15.95
2023-05-09T01:36:19.435Z,15.82
2023-05-09T01:38:46.799Z,16.35
2023-05-09T01:41:15.047Z,16.52
2023-05-09T01:43:42.857Z,16.77
2023-05-09T01:46:09.822Z,16.23
2023-05-09T01:51:03.489Z,15.80
2023-05-09T01:53:29.887Z,15.32
2023-05-09T01:55:57.078Z,16.15
2023-05-09T01:58:23.523Z,16.63
2023-05-09T02:00:50.542Z,15.98
2023-05-09T02:03:16.816Z,15.30
2023-05-09T02:05:44.026Z,16.75
2023-05-09T02:08:10.681Z,15.52
2023-05-09T02:10:37.657Z,16.73
2023-05-09T02:13:03.899Z,16.77
2023-05-09T02:15:30.237Z,14.60
2023-05-09T02:17:56.631Z,16.17
2023-05-09T02:20:22.964Z,15.25
2023-05-09T02:22:49.225Z,14.85
2023-05-09T02:25:15.970Z,14.45
2023-05-09T02:30:10.062Z,13.57
2023-05-09T02:32:38.646Z,15.20
2023-05-09T02:35:06.395Z,14.07
2023-05-09T02:37:33.515Z,13.95
2023-05-09T02:39:59.807Z,14.32
2023-05-09T02:42:26.589Z,14.55
2023-05-09T02:44:53.643Z,14.55
2023-05-09T02:47:20.143Z,15.43
2023-05-09T02:49:46.414Z,14.73
2023-05-09T02:52:12.611Z,14.50
2023-05-09T02:54:38.846Z,14.13
2023-05-09T02:57:05.166Z,14.90
2023-05-09T02:59:31.912Z,14.88
2023-05-09T03:01:58.236Z,14.40
2023-05-09T03:04:26.346Z,15.45
2023-05-09T03:06:52.564Z,17.33
2023-05-09T03:09:18.787Z,15.40
2023-05-09T03:11:45.080Z,16.02
2023-05-09T03:14:13.112Z,15.95
2023-05-09T03:16:39.339Z,16.00
2023-05-09T03:19:05.625Z,15.82
2023-05-09T03:21:32.077Z,16.55
2023-05-09T03:23:58.449Z,16.98
2023-05-09T03:26:26.431Z,15.63
2023-05-09T03:28:52.639Z,17.17
2023-05-09T03:31:19.017Z,17.58
2023-05-09T03:33:45.340Z,16.58
2023-05-09T03:36:11.716Z,15.48
2023-05-09T03:38:37.942Z,15.55
2023-05-09T03:41:04.244Z,15.32
2023-05-09T03:43:30.633Z,15.57
2023-05-09T03:45:56.926Z,15.63
2023-05-09T03:48:23.191Z,16.00
2023-05-09T03:50:49.583Z,17.30
2023-05-09T03:53:15.869Z,16.63
2023-05-09T03:55:42.281Z,16.83
2023-05-09T03:58:08.607Z,15.68
2023-05-09T04:00:34.890Z,15.85
2023-05-09T04:03:01.175Z,16.20
2023-05-09T04:05:27.579Z,16.33
2023-05-09T04:07:53.817Z,17.40
2023-05-09T04:10:20.188Z,16.80
2023-05-09T04:12:46.416Z,17.23
2023-05-09T04:15:12.807Z,17.35
2023-05-09T04:17:39.384Z,17.02
2023-05-09T04:20:08.086Z,17.80
2023-05-09T04:22:34.291Z,17.73
2023-05-09T04:25:00.508Z,17.90
2023-05-09T04:27:27.999Z,17.95
2023-05-09T04:29:54.238Z,17.20
2023-05-09T04:32:20.852Z,17.92
2023-05-09T04:34:47.204Z,18.63
2023-05-09T04:37:13.422Z,16.23
2023-05-09T04:39:39.675Z,16.40
2023-05-09T04:42:05.971Z,16.88
2023-05-09T04:44:33.125Z,18.38
2023-05-09T04:46:59.381Z,18.25
2023-05-09T04:49:25.735Z,18.60
2023-05-09T04:51:52.007Z,18.08
2023-05-09T04:54:18.232Z,18.05
2023-05-09T04:56:44.516Z,16.90
2023-05-09T04:59:10.729Z,17.25
2023-05-09T05:01:37.014Z,18.13
2023-05-09T05:04:03.337Z,17.77
2023-05-09T05:06:29.620Z,16.58
2023-05-09T05:08:55.989Z,16.85
2023-05-09T05:11:22.512Z,18.02
2023-05-09T05:13:48.779Z,18.05
2023-05-09T05:16:15.054Z,17.67
2023-05-09T05:18:41.375Z,18.15
2023-05-09T05:21:08.436Z,17.17
2023-05-09T05:23:34.669Z,18.27
2023-05-09T05:26:00.913Z,17.80
2023-05-09T05:28:27.117Z,18.00
2023-05-09T05:30:53.337Z,17.73
2023-05-09T05:33:19.585Z,16.40
2023-05-09T05:35:45.841Z,17.08
2023-05-09T05:38:12.070Z,15.93
2023-05-09T05:40:38.289Z,16.52
2023-05-09T05:43:04.512Z,16.90
2023-05-09T05:45:30.971Z,17.80
2023-05-09T05:47:57.293Z,17.50
2023-05-09T05:50:23.606Z,17.90
2023-05-09T05:52:49.834Z,17.27
2023-05-09T05:55:16.515Z,17.20
2023-05-09T05:57:42.861Z,18.90
2023-05-09T06:00:11.071Z,19.17
2023-05-09T06:02:37.444Z,19.45
2023-05-09T06:05:04.177Z,17.77
2023-05-09T06:07:30.442Z,18.85
2023-05-09T06:09:56.637Z,18.00
2023-05-09T06:12:22.853Z,17.10
2023-05-09T06:14:49.206Z,17.75
2023-05-09T06:17:15.804Z,18.67
2023-05-09T06:19:42.092Z,18.25
2023-05-09T06:22:08.401Z,16.40
2023-05-09T06:24:36.222Z,17.98
2023-05-09T06:27:03.364Z,18.23
2023-05-09T06:29:29.586Z,18.27
2023-05-09T06:31:55.918Z,17.05
2023-05-09T06:34:22.232Z,18.85
2023-05-09T06:36:48.527Z,20.15
2023-05-09T06:39:14.739Z,19.20
2023-05-09T06:41:41.274Z,18.73
2023-05-09T06:44:07.566Z,18.48
2023-05-09T06:46:33.809Z,18.38
2023-05-09T06:49:01.821Z,18.13
2023-05-09T06:51:28.627Z,18.70
2023-05-09T06:53:54.853Z,20.38
2023-05-09T06:56:22.996Z,18.25
2023-05-09T06:58:49.268Z,19.27
2023-05-09T07:01:15.535Z,19.70
2023-05-09T07:03:41.786Z,17.63
2023-05-09T07:06:08.047Z,18.83
2023-05-09T07:08:34.385Z,18.23
2023-05-09T07:11:00.606Z,18.25
2023-05-09T07:13:26.875Z,18.48
2023-05-09T07:15:53.144Z,19.30
2023-05-09T07:18:19.388Z,19.48
2023-05-09T07:20:45.782Z,18.48
2023-05-09T07:23:12.096Z,18.38
2023-05-09T07:25:38.307Z,18.10
2023-05-09T07:28:04.699Z,18.42
2023-05-09T07:30:30.959Z,19.45
2023-05-09T07:32:57.231Z,19.10
2023-05-09T07:35:23.511Z,18.50
2023-05-09T07:37:49.725Z,18.13
2023-05-09T07:40:16.541Z,19.13
2023-05-09T07:42:49.366Z,19.33
2023-05-09T07:45:16.186Z,19.73
2023-05-09T07:47:42.671Z,19.73
2023-05-09T07:50:09.235Z,20.58
2023-05-09T07:52:36.161Z,19.58
2023-05-09T07:55:02.412Z,19.55
2023-05-09T07:57:28.744Z,20.13
2023-05-09T07:59:54.998Z,19.42
2023-05-09T08:02:21.289Z,20.13
2023-05-09T08:04:48.940Z,22.50
2023-05-09T08:07:15.531Z,21.20
2023-05-09T08:09:41.926Z,20.48
2023-05-09T08:12:08.239Z,20.40
2023-05-09T08:14:34.518Z,19.98
2023-05-09T08:17:00.831Z,21.50
2023-05-09T08:19:27.084Z,20.98
2023-05-09T08:21:53.419Z,21.90
2023-05-09T08:24:20.159Z,21.33
2023-05-09T08:26:46.569Z,20.42
2023-05-09T08:29:12.874Z,21.40
2023-05-09T08:31:39.187Z,21.25
2023-05-09T08:34:05.580Z,20.13
2023-05-09T08:36:32.443Z,19.98
2023-05-09T08:38:58.664Z,18.63
2023-05-09T08:41:26.337Z,18.83
2023-05-09T08:43:53.189Z,17.95
2023-05-09T08:48:45.753Z,18.65
2023-05-09T08:51:12.022Z,19.45
2023-05-09T08:53:38.455Z,17.95
2023-05-09T08:56:04.900Z,18.63
2023-05-09T08:58:31.662Z,18.10
2023-05-09T09:03:24.585Z,16.65
2023-05-09T09:08:17.785Z,14.93
2023-05-09T09:10:47.121Z,14.10
2023-05-09T09:13:14.327Z,16.95
2023-05-09T09:15:41.586Z,17.80
2023-05-09T09:18:09.757Z,18.55
2023-05-09T09:20:40.291Z,17.33
2023-05-09T09:23:08.275Z,16.25
2023-05-09T09:25:34.481Z,17.65
2023-05-09T09:28:00.725Z,15.80
2023-05-09T09:30:27.454Z,16.13
2023-05-09T09:35:20.416Z,16.15
2023-05-09T09:40:14.373Z,17.52
2023-05-09T09:42:44.653Z,17.83
2023-05-09T09:45:15.707Z,19.42
2023-05-09T09:47:45.938Z,26.33
2023-05-09T09:50:13.522Z,24.13
2023-05-09T09:52:44.559Z,24.63
2023-05-09T09:55:11.384Z,25.83
2023-05-09T10:00:05.993Z,21.67
2023-05-09T10:02:32.370Z,22.20
2023-05-09T10:05:08.053Z,23.10
2023-05-09T10:07:35.401Z,23.08
2023-05-09T10:10:05.898Z,21.27
2023-05-09T10:12:34.464Z,17.13
2023-05-09T10:15:01.919Z,14.88
2023-05-09T10:17:31.127Z,15.63
2023-05-09T10:19:57.474Z,15.77
2023-05-09T10:22:24.660Z,14.75
2023-05-09T10:25:04.999Z,15.50
2023-05-09T10:27:32.633Z,13.32
2023-05-09T10:30:07.048Z,12.10
2023-05-09T10:32:53.188Z,12.30
2023-05-09T10:35:22.445Z,11.73
2023-05-09T10:37:48.733Z,11.52
2023-05-09T10:40:15.492Z,10.93
2023-05-09T10:45:09.416Z,10.05
2023-05-09T10:47:36.383Z,9.65
2023-05-09T10:50:03.292Z,9.57
2023-05-09T10:55:00.980Z,11.38
2023-05-09T10:57:31.125Z,8.00
2023-05-09T10:59:58.075Z,7.40
2023-05-09T11:02:32.744Z,8.27
2023-05-09T11:05:14.576Z,7.40
2023-05-09T11:07:41.007Z,8.02
2023-05-09T11:10:08.279Z,8.85
2023-05-09T11:12:34.500Z,8.93
2023-05-09T11:15:07.732Z,9.15
2023-05-09T11:17:37.747Z,8.55
2023-05-09T11:20:08.473Z,9.13
2023-05-09T11:22:38.784Z,8.27
2023-05-09T11:25:06.092Z,8.75
2023-05-09T11:27:38.669Z,8.65
2023-05-09T11:30:05.952Z,6.88
2023-05-09T11:32:33.176Z,7.95
2023-05-09T11:35:09.938Z,6.80
2023-05-09T11:37:47.201Z,7.20
2023-05-09T11:42:41.931Z,8.50
2023-05-09T11:45:09.312Z,8.45
2023-05-09T11:47:35.991Z,9.63
2023-05-09T11:50:02.444Z,9.65
2023-05-09T11:52:31.884Z,10.02
2023-05-09T11:54:58.519Z,11.68
2023-05-09T11:57:25.096Z,10.77
2023-05-09T11:59:51.352Z,12.55
2023-05-09T12:02:17.682Z,10.93
2023-05-09T12:04:44.104Z,9.85
2023-05-09T12:07:11.774Z,7.80
2023-05-09T12:09:38.238Z,6.72
2023-05-09T12:12:14.271Z,7.28
2023-05-09T12:14:41.236Z,7.53
2023-05-09T12:17:08.185Z,7.35
2023-05-09T12:19:34.453Z,6.72
2023-05-09T12:22:01.660Z,6.68
2023-05-09T12:24:28.613Z,7.50
2023-05-09T12:26:59.500Z,6.60
2023-05-09T12:29:26.839Z,7.50
2023-05-09T12:31:53.774Z,6.45
2023-05-09T12:34:20.216Z,6.47
2023-05-09T12:36:53.446Z,5.55
2023-05-09T12:39:22.350Z,5.90
2023-05-09T12:42:00.548Z,5.97
2023-05-09T12:44:29.384Z,5.60
2023-05-09T12:47:00.298Z,6.00
2023-05-09T12:49:26.836Z,5.43
2023-05-09T12:51:53.634Z,6.57
2023-05-09T12:54:23.523Z,5.93
2023-05-09T12:56:52.144Z,5.15
2023-05-09T12:59:22.172Z,4.85
2023-05-09T13:01:58.555Z,5.50
2023-05-09T13:04:25.925Z,5.73
2023-05-09T13:06:53.735Z,5.43
2023-05-09T13:09:19.991Z,6.63
2023-05-09T13:11:47.565Z,5.55
2023-05-09T13:14:14.557Z,6.38
2023-05-09T13:16:41.002Z,6.65
2023-05-09T13:19:07.921Z,7.28
2023-05-09T13:21:34.537Z,7.35
2023-05-09T13:24:00.819Z,6.32
2023-05-09T13:26:27.391Z,6.10
2023-05-09T13:28:53.665Z,6.30
2023-05-09T13:31:20.140Z,6.18
2023-05-09T13:33:46.894Z,6.38
2023-05-09T13:36:14.344Z,6.88
2023-05-09T13:38:40.857Z,6.50
2023-05-09T13:41:07.302Z,7.30
2023-05-09T13:43:33.834Z,7.93
2023-05-09T13:46:00.132Z,6.28
2023-05-09T13:48:26.737Z,6.82
2023-05-09T13:50:53.081Z,6.28
2023-05-09T13:53:19.576Z,6.60
2023-05-09T13:55:46.292Z,6.55
2023-05-09T14:00:38.815Z,6.82
2023-05-09T14:03:05.128Z,6.60
2023-05-09T14:05:31.495Z,5.50
2023-05-09T14:07:58.120Z,4.82
2023-05-09T14:10:26.615Z,4.45
2023-05-09T14:12:53.377Z,4.10
2023-05-09T14:17:46.035Z,4.40
2023-05-09T14:20:13.098Z,3.90
2023-05-09T14:22:39.482Z,3.55
2023-05-09T14:25:06.099Z,3.30
2023-05-09T14:29:58.638Z,2.97
2023-05-09T14:32:25.219Z,3.08
2023-05-09T14:34:51.571Z,3.08
2023-05-09T14:37:17.849Z,2.83
2023-05-09T14:39:45.176Z,2.60
2023-05-09T14:42:13.987Z,3.00
2023-05-09T14:44:41.173Z,2.63
2023-05-09T14:47:07.755Z,2.72
2023-05-09T14:49:34.032Z,2.65
2023-05-09T14:52:00.278Z,2.63
2023-05-09T14:54:26.514Z,2.90
2023-05-09T14:56:52.917Z,2.92
2023-05-09T14:59:19.170Z,3.25
2023-05-09T15:01:48.094Z,2.63
2023-05-09T15:04:14.369Z,2.58
2023-05-09T15:06:41.007Z,2.47
2023-05-09T15:09:07.292Z,2.83
2023-05-09T15:11:46.213Z,2.55
2023-05-09T15:14:14.683Z,2.28
2023-05-09T15:16:41.281Z,2.78
2023-05-09T15:19:08.036Z,2.33
2023-05-09T15:24:01.958Z,2.50
2023-05-09T15:26:28.374Z,2.33
2023-05-09T15:28:54.618Z,2.28
2023-05-09T15:31:21.680Z,2.55
2023-05-09T15:33:48.157Z,2.92
2023-05-09T15:36:14.424Z,2.75
2023-05-09T15:38:40.681Z,2.70
2023-05-09T15:41:06.990Z,2.65
2023-05-09T15:43:33.206Z,2.40
2023-05-09T15:45:59.520Z,2.28
2023-05-09T15:48:25.778Z,2.88
2023-05-09T15:50:52.794Z,3.22
2023-05-09T15:53:19.061Z,2.60
2023-05-09T15:55:45.525Z,2.67
2023-05-09T15:58:13.845Z,3.50
2023-05-09T16:00:40.107Z,3.20
2023-05-09T16:03:06.527Z,3.17
2023-05-09T16:05:32.798Z,2.50
2023-05-09T16:07:59.047Z,3.05
2023-05-09T16:10:25.278Z,3.67
2023-05-09T16:12:51.614Z,4.28
2023-05-09T16:15:17.889Z,3.70
2023-05-09T16:17:45.070Z,4.50
2023-05-09T16:20:14.122Z,4.60
2023-05-09T16:22:40.814Z,4.22
2023-05-09T16:25:07.289Z,5.53
2023-05-09T16:27:33.662Z,7.55
2023-05-09T16:29:59.946Z,6.75
2023-05-09T16:32:26.198Z,5.50
2023-05-09T16:34:52.504Z,5.97
2023-05-09T16:37:21.699Z,6.40
2023-05-09T16:39:47.977Z,6.32
2023-05-09T16:42:14.198Z,5.10
2023-05-09T16:44:40.454Z,5.32
2023-05-09T16:47:06.953Z,6.18
2023-05-09T16:49:33.270Z,10.40
2023-05-09T16:51:59.829Z,5.85
2023-05-09T16:54:26.081Z,5.07
2023-05-09T16:56:52.297Z,5.25
2023-05-09T16:59:19.984Z,4.82
2023-05-09T17:01:47.422Z,4.82
2023-05-09T17:04:13.756Z,5.38
2023-05-09T17:06:40.011Z,5.18
2023-05-09T17:09:06.297Z,5.50
2023-05-09T17:11:32.926Z,6.15
2023-05-09T17:13:59.198Z,11.05
2023-05-09T17:16:25.466Z,21.23
2023-05-09T17:18:52.074Z,19.38
2023-05-09T17:21:20.107Z,13.40
2023-05-09T17:23:46.427Z,5.85
2023-05-09T17:26:12.694Z,5.10
2023-05-09T17:28:38.930Z,4.47
2023-05-09T17:31:05.215Z,5.20
2023-05-09T17:33:31.556Z,5.28
2023-05-09T17:35:58.422Z,5.40
2023-05-09T17:40:50.810Z,5.03
2023-05-09T17:43:17.147Z,5.32
2023-05-09T17:45:43.407Z,4.88
2023-05-09T17:48:09.769Z,3.72
2023-05-09T17:50:36.045Z,4.20
2023-05-09T17:53:02.477Z,3.83
2023-05-09T17:55:28.892Z,2.80
2023-05-09T17:57:55.129Z,2.65
2023-05-09T18:00:21.921Z,3.30
2023-05-09T18:02:50.915Z,2.70
2023-05-09T18:05:17.369Z,2.60
2023-05-09T18:07:43.625Z,2.17
2023-05-09T18:10:10.086Z,2.97
2023-05-09T18:12:37.303Z,3.00
2023-05-09T18:15:04.117Z,2.55
2023-05-09T18:17:30.541Z,2.30
2023-05-09T18:19:56.854Z,2.53
2023-05-09T18:22:23.991Z,2.95
2023-05-09T18:24:50.224Z,2.05
2023-05-09T18:27:16.848Z,2.47
2023-05-09T18:29:45.143Z,2.97
2023-05-09T18:32:11.931Z,3.20
2023-05-09T18:34:38.187Z,2.67
2023-05-09T18:37:04.512Z,2.50
2023-05-09T18:39:30.820Z,2.72
2023-05-09T18:41:57.334Z,2.17
2023-05-09T18:44:23.607Z,3.05
2023-05-09T18:46:49.862Z,2.40
2023-05-09T18:49:17.093Z,1.85
2023-05-09T18:51:43.323Z,2.33
2023-05-09T18:54:09.623Z,2.20
2023-05-09T18:56:39.230Z,2.35
2023-05-09T18:59:06.416Z,2.30
2023-05-09T19:01:32.783Z,2.25
2023-05-09T19:03:59.105Z,2.35
2023-05-09T19:06:26.168Z,2.42
2023-05-09T19:08:53.761Z,2.10
2023-05-09T19:11:20.094Z,2.38
2023-05-09T19:13:49.606Z,2.28
2023-05-09T19:16:16.326Z,2.25
2023-05-09T19:18:42.604Z,2.08
2023-05-09T19:21:09.349Z,1.80
2023-05-09T19:23:35.618Z,2.30
2023-05-09T19:26:03.167Z,2.10
2023-05-09T19:28:29.420Z,2.10
2023-05-09T19:30:57.113Z,1.92
2023-05-09T19:33:23.459Z,2.50
2023-05-09T19:35:49.701Z,2.17
2023-05-09T19:38:16.117Z,1.98
2023-05-09T19:40:42.342Z,1.90
2023-05-09T19:43:08.645Z,2.17
2023-05-09T19:45:34.870Z,1.83
2023-05-09T19:48:01.148Z,1.45
2023-05-09T19:50:27.466Z,1.73
2023-05-09T19:52:53.721Z,1.85
2023-05-09T19:55:19.988Z,2.25
2023-05-09T19:57:46.640Z,1.98
2023-05-09T20:00:13.577Z,2.55
2023-05-09T20:02:40.133Z,2.63
2023-05-09T20:05:06.591Z,2.78
2023-05-09T20:07:32.881Z,2.33
2023-05-09T20:09:59.139Z,2.63
2023-05-09T20:12:26.370Z,2.22
2023-05-09T20:14:53.569Z,2.40
2023-05-09T20:17:19.824Z,2.15
2023-05-09T20:19:46.108Z,1.95
2023-05-09T20:22:12.418Z,3.25
2023-05-09T20:24:38.681Z,2.03
2023-05-09T20:27:04.911Z,1.88
2023-05-09T20:29:31.161Z,1.83
2023-05-09T20:31:57.545Z,2.08
2023-05-09T20:34:24.642Z,1.67
2023-05-09T20:39:20.220Z,2.05
2023-05-09T20:41:50.090Z,2.17
2023-05-09T20:44:17.736Z,2.28
2023-05-09T20:46:44.972Z,2.38
2023-05-09T20:49:11.326Z,1.92
2023-05-09T20:51:38.175Z,2.13
2023-05-09T20:54:04.558Z,2.20
2023-05-09T20:56:30.871Z,2.25
2023-05-09T20:59:00.897Z,2.53
2023-05-09T21:01:27.185Z,2.63
2023-05-09T21:03:53.493Z,2.35
2023-05-09T21:06:19.761Z,1.95
2023-05-09T21:08:46.010Z,2.50
2023-05-09T21:11:12.237Z,2.65
2023-05-09T21:13:38.567Z,1.98
2023-05-09T21:16:04.942Z,1.83
2023-05-09T21:18:31.410Z,1.65
2023-05-09T21:21:00.078Z,2.00
2023-05-09T21:23:26.359Z,2.22
2023-05-09T21:25:52.623Z,2.20
2023-05-09T21:28:19.614Z,1.90
2023-05-09T21:30:50.486Z,1.90
2023-05-09T21:33:16.737Z,2.00
2023-05-09T21:35:43.005Z,1.88
2023-05-09T21:38:09.227Z,1.80
2023-05-09T21:40:35.433Z,1.95
2023-05-09T21:43:01.737Z,1.83
2023-05-09T21:45:28.069Z,1.60
2023-05-09T21:47:54.405Z,1.98
2023-05-09T21:50:20.692Z,1.60
2023-05-09T21:52:47.095Z,1.40
2023-05-09T21:55:13.346Z,1.73
2023-05-09T21:57:39.603Z,1.45
2023-05-09T22:00:06.806Z,1.55
2023-05-09T22:02:34.079Z,1.00
2023-05-09T22:05:01.034Z,1.30
2023-05-09T22:09:54.002Z,0.88
2023-05-09T22:12:20.425Z,1.00
2023-05-09T22:14:55.769Z,0.85
2023-05-09T22:17:23.100Z,1.05
2023-05-09T22:19:49.361Z,0.73
2023-05-09T22:22:15.628Z,1.00
2023-05-09T22:24:41.907Z,0.73
2023-05-09T22:27:08.653Z,0.60
2023-05-09T22:29:34.928Z,0.70
2023-05-09T22:32:01.998Z,0.70
2023-05-09T22:34:28.375Z,0.80
2023-05-09T22:36:54.987Z,0.80
2023-05-09T22:39:21.849Z,0.57
2023-05-09T22:44:14.264Z,0.65
2023-05-09T22:46:40.565Z,0.60
2023-05-09T22:49:06.878Z,0.73
2023-05-09T22:51:33.431Z,0.57
2023-05-09T22:53:59.698Z,0.65
2023-05-09T22:56:27.210Z,0.50
2023-05-09T22:58:53.471Z,0.50
2023-05-09T23:01:19.735Z,0.45
2023-05-09T23:03:46.055Z,0.40
2023-05-09T23:06:12.304Z,0.50
2023-05-09T23:08:38.599Z,0.40
2023-05-09T23:11:04.920Z,0.63
2023-05-09T23:13:31.185Z,0.85
2023-05-09T23:15:57.472Z,0.50
2023-05-09T23:18:23.895Z,0.50
2023-05-09T23:20:50.570Z,0.40
2023-05-09T23:23:16.847Z,0.65
2023-05-09T23:25:44.289Z,0.60
2023-05-09T23:28:10.549Z,0.38
2023-05-09T23:30:36.834Z,1.02
2023-05-09T23:33:03.240Z,1.05
2023-05-09T23:35:29.537Z,0.65
2023-05-09T23:37:55.769Z,0.75
2023-05-09T23:40:22.104Z,0.50
2023-05-09T23:42:48.358Z,0.70
2023-05-09T23:45:14.866Z,0.70
2023-05-09T23:47:41.122Z,0.60
2023-05-09T23:50:07.697Z,0.88
2023-05-09T23:52:33.904Z,0.75
2023-05-09T23:55:00.214Z,0.47
2023-05-09T23:57:26.465Z,0.75
2023-05-09T23:59:52.699Z,0.73
